createdAt,value
2022-11-24T00:04:34.396Z,1001.4
2022-11-24T00:09:34.246Z,1001.4
2022-11-24T00:14:34.655Z,1001.5
2022-11-24T00:19:34.926Z,1001.5
2022-11-24T00:24:34.436Z,1001.5
2022-11-24T00:29:34.266Z,1001.5
2022-11-24T00:34:35.024Z,1001.6
2022-11-24T00:39:35.055Z,1001.6
2022-11-24T00:44:34.589Z,1001.7
2022-11-24T00:49:34.333Z,1001.7
2022-11-24T00:54:35.046Z,1001.7
2022-11-24T00:59:34.959Z,1001.7
2022-11-24T01:04:34.534Z,1001.7
2022-11-24T01:09:34.854Z,1001.8
2022-11-24T01:14:34.340Z,1001.8
2022-11-24T01:19:34.269Z,1001.8
2022-11-24T01:24:35.033Z,1001.8
2022-11-24T01:29:34.946Z,1002
2022-11-24T01:34:34.499Z,1002
2022-11-24T01:39:34.365Z,1002
2022-11-24T01:44:34.324Z,1002.1
2022-11-24T01:49:34.351Z,1002.1
2022-11-24T01:54:34.834Z,1002.1
2022-11-24T01:59:34.100Z,1002.1
2022-11-24T02:04:34.692Z,1002.1
2022-11-24T02:09:34.653Z,1002.1
2022-11-24T02:14:35.289Z,1002.1
2022-11-24T02:19:34.477Z,1002.1
2022-11-24T02:24:35.046Z,1002.1
2022-11-24T02:29:34.881Z,1002.2
2022-11-24T02:34:35.004Z,1002.2
2022-11-24T02:39:35.017Z,1002.3
2022-11-24T02:44:34.576Z,1002.3
2022-11-24T02:49:34.896Z,1002.3
2022-11-24T02:54:35.187Z,1002.3
2022-11-24T02:59:34.264Z,1002.3
2022-11-24T03:04:34.725Z,1002.4
2022-11-24T03:09:35.132Z,1002.4
2022-11-24T03:14:34.494Z,1002.3
2022-11-24T03:19:34.388Z,1002.3
2022-11-24T03:24:34.337Z,1002.3
2022-11-24T03:29:34.149Z,1002.3
2022-11-24T03:34:34.625Z,1002.4
2022-11-24T03:39:34.175Z,1002.4
2022-11-24T03:44:34.891Z,1002.6
2022-11-24T03:49:34.732Z,1002.6
2022-11-24T03:54:35.173Z,1002.6
2022-11-24T03:59:34.654Z,1002.6
2022-11-24T04:04:35.045Z,1002.7
2022-11-24T04:09:35.076Z,1002.7
2022-11-24T04:14:35.246Z,1002.9
2022-11-24T04:19:34.818Z,1002.9
2022-11-24T04:24:34.929Z,1002.9
2022-11-24T04:29:35.083Z,1003
2022-11-24T04:34:34.636Z,1003
2022-11-24T04:39:34.981Z,1003
2022-11-24T04:44:34.784Z,1003.2
2022-11-24T04:49:35.071Z,1003.2
2022-11-24T04:54:34.566Z,1003.2
2022-11-24T04:59:34.381Z,1003.2
2022-11-24T05:04:34.926Z,1003.2
2022-11-24T05:09:58.055Z,1003.4
2022-11-24T05:14:34.456Z,1003.4
2022-11-24T05:19:34.361Z,1003.4
2022-11-24T05:24:35.062Z,1003.4
2022-11-24T05:29:34.322Z,1003.4
2022-11-24T05:34:35.112Z,1003.6
2022-11-24T05:39:34.182Z,1003.6
2022-11-24T05:44:34.818Z,1003.7
2022-11-24T05:49:34.161Z,1003.7
2022-11-24T05:54:35.142Z,1003.7
2022-11-24T05:59:35.188Z,1003.7
2022-11-24T06:04:34.877Z,1003.7
2022-11-24T06:09:34.722Z,1003.7
2022-11-24T06:14:34.365Z,1003.8
2022-11-24T06:19:40.035Z,1003.8
2022-11-24T06:24:34.796Z,1003.9
2022-11-24T06:29:34.628Z,1003.9
2022-11-24T06:34:35.031Z,1004.2
2022-11-24T06:39:34.936Z,1004.2
2022-11-24T06:44:35.398Z,1004.2
2022-11-24T06:49:34.233Z,1004.2
2022-11-24T06:54:34.778Z,1004.2
2022-11-24T06:59:34.551Z,1004.3
2022-11-24T07:04:35.111Z,1004.3
2022-11-24T07:09:35.020Z,1004.3
2022-11-24T07:14:34.824Z,1004.6
2022-11-24T07:19:34.540Z,1004.6
2022-11-24T07:24:35.087Z,1004.6
2022-11-24T07:29:34.513Z,1004.6
2022-11-24T07:34:34.787Z,1004.8
2022-11-24T07:39:34.487Z,1004.9
2022-11-24T07:44:34.961Z,1004.9
2022-11-24T07:49:34.574Z,1004.9
2022-11-24T07:54:35.301Z,1004.9
2022-11-24T07:59:34.308Z,1005.2
2022-11-24T08:04:34.937Z,1005.2
2022-11-24T08:09:34.689Z,1005.3
2022-11-24T08:14:35.191Z,1005.3
2022-11-24T08:19:35.137Z,1005.3
2022-11-24T08:24:35.399Z,1005.3
2022-11-24T08:29:34.272Z,1005.3
2022-11-24T08:34:34.921Z,1005.4
2022-11-24T08:39:34.834Z,1005.7
2022-11-24T08:44:35.592Z,1005.7
2022-11-24T08:49:35.284Z,1005.7
2022-11-24T08:54:35.048Z,1005.7
2022-11-24T08:59:35.266Z,1005.8
2022-11-24T09:04:34.866Z,1005.8
2022-11-24T09:09:34.358Z,1005.8
2022-11-24T09:14:34.813Z,1005.9
2022-11-24T09:19:34.591Z,1005.9
2022-11-24T09:24:34.601Z,1005.9
2022-11-24T09:29:35.586Z,1005.9
2022-11-24T09:34:35.224Z,1006
2022-11-24T09:39:35.807Z,1006.2
2022-11-24T09:44:34.398Z,1006.2
2022-11-24T09:49:35.064Z,1006.2
2022-11-24T09:54:35.157Z,1006.2
2022-11-24T09:59:34.678Z,1006.2
2022-11-24T10:04:35.138Z,1006.2
2022-11-24T10:09:35.360Z,1006.2
2022-11-24T10:14:35.169Z,1006.2
2022-11-24T10:19:37.274Z,1006.2
2022-11-24T10:24:35.063Z,1006.2
2022-11-24T10:29:35.690Z,1006.2
2022-11-24T10:34:35.079Z,1006.2
2022-11-24T10:39:34.804Z,1006.2
2022-11-24T10:44:35.187Z,1006.2
2022-11-24T10:49:35.106Z,1006.2
2022-11-24T10:54:35.039Z,1006.2
2022-11-24T10:59:34.691Z,1006.2
2022-11-24T11:04:34.510Z,1006.3
2022-11-24T11:09:35.033Z,1006.3
2022-11-24T11:14:34.900Z,1006.4
2022-11-24T11:19:49.062Z,1006.4
2022-11-24T11:24:35.089Z,1006.4
2022-11-24T11:34:35.330Z,1006.7
2022-11-24T11:39:34.693Z,1006.7
2022-11-24T11:44:35.486Z,1006.7
2022-11-24T11:49:34.502Z,1006.7
2022-11-24T11:54:35.155Z,1006.7
2022-11-24T11:59:34.534Z,1006.8
2022-11-24T12:04:35.466Z,1006.8
2022-11-24T12:09:34.983Z,1006.8
2022-11-24T12:14:37.575Z,1006.9
2022-11-24T12:19:35.468Z,1006.9
2022-11-24T12:24:34.538Z,1006.9
2022-11-24T12:29:34.968Z,1007.1
2022-11-24T12:34:34.884Z,1007.1
2022-11-24T12:39:35.535Z,1007.2
2022-11-24T12:44:34.550Z,1007.2
2022-11-24T12:49:35.080Z,1007.2
2022-11-24T12:54:35.002Z,1007.2
2022-11-24T12:59:35.593Z,1007.2
2022-11-24T13:04:35.116Z,1007.2
2022-11-24T13:09:35.238Z,1007.4
2022-11-24T13:14:34.847Z,1007.4
2022-11-24T13:19:34.884Z,1007.4
2022-11-24T13:24:35.277Z,1007.4
2022-11-24T13:29:35.213Z,1007.5
2022-11-24T13:34:35.773Z,1007.5
2022-11-24T13:39:39.102Z,1007.7
2022-11-24T13:44:34.663Z,1007.7
2022-11-24T13:49:34.886Z,1007.7
2022-11-24T13:54:35.368Z,1007.7
2022-11-24T13:59:35.241Z,1007.8
2022-11-24T14:04:34.530Z,1007.8
2022-11-24T14:09:34.968Z,1007.8
2022-11-24T14:14:35.544Z,1007.8
2022-11-24T14:19:35.504Z,1007.8
2022-11-24T14:24:38.251Z,1007.8
2022-11-24T14:29:35.202Z,1008.1
2022-11-24T14:34:35.569Z,1008.1
2022-11-24T14:39:34.803Z,1008.3
2022-11-24T14:44:35.484Z,1008.3
2022-11-24T14:49:35.012Z,1008.3
2022-11-24T14:54:35.049Z,1008.3
2022-11-24T14:59:35.012Z,1008.4
2022-11-24T15:05:03.143Z,1008.4
2022-11-24T15:09:34.808Z,1008.4
2022-11-24T15:14:35.020Z,1008.5
2022-11-24T15:19:35.066Z,1008.5
2022-11-24T15:24:35.412Z,1008.5
2022-11-24T15:29:34.515Z,1008.5
2022-11-24T15:34:35.692Z,1008.7
2022-11-24T15:39:34.745Z,1008.7
2022-11-24T15:44:35.421Z,1008.8
2022-11-24T15:49:35.240Z,1008.8
2022-11-24T15:54:34.988Z,1008.8
2022-11-24T15:59:35.054Z,1008.8
2022-11-24T16:04:35.623Z,1008.8
2022-11-24T16:09:34.903Z,1008.8
2022-11-24T16:14:35.129Z,1008.9
2022-11-24T16:19:40.275Z,1008.9
2022-11-24T16:24:34.998Z,1008.9
2022-11-24T16:29:38.313Z,1009.1
2022-11-24T16:34:35.493Z,1009.1
2022-11-24T16:39:34.737Z,1009.1
2022-11-24T16:44:35.230Z,1009.2
2022-11-24T16:49:34.599Z,1009.2
2022-11-24T16:54:35.150Z,1009.2
2022-11-24T16:59:34.852Z,1009.2
2022-11-24T17:04:35.704Z,1009.3
2022-11-24T17:09:40.159Z,1009.3
2022-11-24T17:14:35.080Z,1009.3
2022-11-24T17:19:34.629Z,1009.3
2022-11-24T17:24:35.407Z,1009.3
2022-11-24T17:29:35.223Z,1009.3
2022-11-24T17:34:35.784Z,1009.3
2022-11-24T17:39:35.124Z,1009.4
2022-11-24T17:44:35.569Z,1009.4
2022-11-24T17:49:34.715Z,1009.4
2022-11-24T17:54:56.886Z,1009.4
2022-11-24T17:59:35.144Z,1009.5
2022-11-24T18:04:35.470Z,1009.5
2022-11-24T18:09:34.850Z,1009.5
2022-11-24T18:14:35.434Z,1009.7
2022-11-24T18:19:34.774Z,1009.7
2022-11-24T18:24:34.919Z,1009.7
2022-11-24T18:29:35.252Z,1009.8
2022-11-24T18:34:35.556Z,1009.8
2022-11-24T18:39:34.889Z,1010
2022-11-24T18:44:35.446Z,1010
2022-11-24T18:49:34.861Z,1010
2022-11-24T18:54:35.045Z,1010
2022-11-24T18:59:35.216Z,1010
2022-11-24T19:04:35.761Z,1010
2022-11-24T19:09:35.035Z,1010.1
2022-11-24T19:14:35.794Z,1010.1
2022-11-24T19:19:35.187Z,1010.1
2022-11-24T19:24:35.674Z,1010.1
2022-11-24T19:29:37.956Z,1010.3
2022-11-24T19:34:35.248Z,1010.3
2022-11-24T19:39:35.722Z,1010.4
2022-11-24T19:44:35.518Z,1010.4
2022-11-24T19:49:34.964Z,1010.4
2022-11-24T19:54:35.444Z,1010.4
2022-11-24T19:59:34.901Z,1010.4
2022-11-24T20:04:35.225Z,1010.4
2022-11-24T20:09:35.480Z,1010.5
2022-11-24T20:14:35.356Z,1010.5
2022-11-24T20:19:34.754Z,1010.5
2022-11-24T20:24:35.178Z,1010.5
2022-11-24T20:29:35.571Z,1010.6
2022-11-24T20:34:35.707Z,1010.6
2022-11-24T20:39:35.117Z,1010.8
2022-11-24T20:44:35.669Z,1010.8
2022-11-24T20:49:35.105Z,1010.8
2022-11-24T20:54:35.325Z,1010.8
2022-11-24T20:59:35.046Z,1011
2022-11-24T21:04:35.679Z,1011
2022-11-24T21:09:34.872Z,1011.1
2022-11-24T21:14:35.415Z,1011.1
2022-11-24T21:19:34.945Z,1011.1
2022-11-24T21:24:35.481Z,1011.1
2022-11-24T21:29:35.744Z,1011.1
2022-11-24T21:34:35.113Z,1011.1
2022-11-24T21:39:35.563Z,1011.3
2022-11-24T21:44:35.402Z,1011.3
2022-11-24T21:49:35.092Z,1011.3
2022-11-24T21:54:35.480Z,1011.3
2022-11-24T21:59:35.083Z,1011.3
2022-11-24T22:04:35.507Z,1011.2
2022-11-24T22:09:35.267Z,1011.2
2022-11-24T22:14:40.221Z,1011.3
2022-11-24T22:19:34.822Z,1011.4
2022-11-24T22:24:35.105Z,1011.4
2022-11-24T22:29:35.237Z,1011.6
2022-11-24T22:34:36.145Z,1011.6
2022-11-24T22:39:35.363Z,1011.6
2022-11-24T22:44:36.152Z,1011.6
2022-11-24T22:49:35.598Z,1011.6
2022-11-24T22:54:35.143Z,1011.6
2022-11-24T22:59:35.556Z,1011.6
2022-11-24T23:04:35.882Z,1011.6
2022-11-24T23:09:35.817Z,1011.5
2022-11-24T23:14:35.790Z,1011.5
2022-11-24T23:19:35.655Z,1011.5
2022-11-24T23:24:35.626Z,1011.5
2022-11-24T23:29:35.364Z,1011.5
2022-11-24T23:34:35.276Z,1011.5
2022-11-24T23:39:35.928Z,1011.4
2022-11-24T23:44:35.865Z,1011.4
2022-11-24T23:49:35.331Z,1011.4
2022-11-24T23:54:36.037Z,1011.4
2022-11-24T23:59:35.936Z,1011.4
